Muskogee, OK

7:02 AM CST on February 10, 2016 (GMT -0600)
Grandview 7- Hillcrest | | Change Station
CLOSE
Current Station
Personal Weather Station
Location: Muskogee, OK
Elevation: 571 ft
Nearby Weather Stations

Elev 571 ft 35.70 °N, 95.37 °W | Updated 33 seconds ago

Clear
Clear
20.3 °F
Feels Like 20 °F
N
0.0
Wind Variable Wind from ESE

Today
High -- | Low -- °F
--% Chance of Precip.
Yesterday
High -- | Low -- °F
Precip. -- in
Pressure 30.32 in
Visibility 10.0 miles
Clouds Clear
Windchill 20 °F
Dew Point 13 °F
Humidity 72%
Rainfall 0.00 in
Snow Depth Not available.
7:14 AM 5:57 PM
Waxing Crescent, 5% visible
METAR KMKO 101253Z AUTO 16004KT 10SM CLR M07/M11 A3031 RMK AO2 SLP268 T10671106
Pressure 30.32 in
Visibility 10.0 miles
Clouds Clear
Windchill 20 °F
Dew Point 13 °F
Humidity 72%
Rainfall 0.00 in
Snow Depth Not available.
7:14 AM 5:57 PM
Waxing Crescent, 5% visible
METAR KMKO 101253Z AUTO 16004KT 10SM CLR M07/M11 A3031 RMK AO2 SLP268 T10671106

10-Day Weather Forecast

Almanac

Astronomy

Feb. 10, 2016 Rise Set
Actual Time
Civil Twilight
Nautical Twilight
Astronomical Twilight
Moon
Length of Visible Light
Length of Day
Tomorrow will be .
, % of the Moon is Illuminated

Today's Extremes

State Highs State Lows

Community

WunderPhotos

Upload Photos

1,891,838 photos uploaded!

WunderBlog® & News

Nearby

Air Quality

  Air Quality AQ Index Pollutant
Not available.

Snow Depth

Station Depth Elevation

Earthquake Activity

City Distance Mag. Time & Date
Minimum magnitude displayed is 2.5.

Coastal Water Temperatures

Place Temperature

Stations

Nearby Weather Stations

Station Location Temp. Windchill Dew Point Humidity Wind Precip. Elev Updated Type
                   

Watches & Warnings

There are currently no watches in effect.